createdAt,value
2022-10-13T00:45:41.361Z,7.45
2022-10-13T00:48:10.319Z,7.35
2022-10-13T00:50:42.609Z,5.97
2022-10-13T00:53:13.154Z,6.85
2022-10-13T00:55:43.361Z,6.22
2022-10-13T00:58:17.633Z,7.57
2022-10-13T01:45:16.386Z,5.57
2022-10-13T01:47:45.179Z,6.07
2022-10-13T01:50:16.183Z,5.90
2022-10-13T01:52:44.886Z,5.05
2022-10-13T01:55:14.843Z,6.43
2022-10-13T01:57:45.591Z,5.78
2022-10-13T02:47:40.000Z,4.07
2022-10-13T02:50:09.710Z,4.85
2022-10-13T02:52:38.088Z,4.65
2022-10-13T02:55:08.261Z,4.57
2022-10-13T02:57:37.015Z,6.25
2022-10-13T03:45:21.718Z,4.10
2022-10-13T03:47:49.900Z,4.15
2022-10-13T03:50:18.126Z,5.35
2022-10-13T03:52:46.777Z,5.07
2022-10-13T03:55:15.103Z,4.35
2022-10-13T03:57:43.236Z,4.60
2022-10-13T04:31:45.110Z,6.10
2022-10-13T04:34:13.326Z,7.32
2022-10-13T04:36:41.419Z,4.95
2022-10-13T04:39:09.875Z,4.78
2022-10-13T04:41:38.307Z,5.93
2022-10-13T04:44:06.428Z,5.65
2022-10-13T04:46:34.553Z,4.78
2022-10-13T04:49:04.777Z,4.85
2022-10-13T04:51:33.903Z,6.50
2022-10-13T04:54:03.456Z,6.93
2022-10-13T04:56:31.497Z,4.75
2022-10-13T04:59:05.749Z,4.28
2022-10-13T05:01:35.884Z,4.22
2022-10-13T05:04:09.555Z,4.72
2022-10-13T05:06:58.851Z,5.68
2022-10-13T05:09:28.787Z,5.75
2022-10-13T05:11:57.334Z,4.63
2022-10-13T05:14:25.760Z,3.90
2022-10-13T05:16:54.253Z,4.72
2022-10-13T05:19:24.070Z,4.40
2022-10-13T05:21:53.885Z,4.20
2022-10-13T05:24:30.963Z,5.20
2022-10-13T05:26:59.466Z,3.78
2022-10-13T05:29:27.712Z,4.47
2022-10-13T05:31:55.877Z,4.85
2022-10-13T05:34:25.559Z,4.65
2022-10-13T05:36:53.840Z,6.30
2022-10-13T05:39:21.941Z,5.35
2022-10-13T05:41:50.152Z,7.65
2022-10-13T05:44:22.717Z,5.30
2022-10-13T05:46:56.918Z,5.80
2022-10-13T05:49:26.574Z,5.55
2022-10-13T05:51:58.244Z,5.88
2022-10-13T05:54:31.080Z,5.90
2022-10-13T05:57:03.885Z,5.88
2022-10-13T05:59:38.343Z,3.90
2022-10-13T06:02:10.880Z,4.43
2022-10-13T06:04:47.338Z,5.45
2022-10-13T06:07:15.565Z,6.13
2022-10-13T06:09:44.496Z,6.90
2022-10-13T06:12:12.608Z,5.47
2022-10-13T06:14:40.911Z,8.07
2022-10-13T06:17:11.846Z,8.02
2022-10-13T06:19:46.281Z,7.30
2022-10-13T06:22:14.680Z,7.95
2022-10-13T06:24:43.276Z,15.27
2022-10-13T06:27:11.998Z,9.88
2022-10-13T06:29:40.487Z,8.95
2022-10-13T06:32:08.983Z,7.68
2022-10-13T06:34:37.454Z,9.88
2022-10-13T06:37:07.229Z,6.32
2022-10-13T06:39:36.296Z,5.80
2022-10-13T06:42:05.492Z,6.45
2022-10-13T06:44:39.201Z,6.75
2022-10-13T06:47:07.444Z,9.43
2022-10-13T06:49:35.586Z,6.18
2022-10-13T06:52:03.812Z,7.93
2022-10-13T06:54:33.316Z,7.22
2022-10-13T06:57:01.550Z,6.38
2022-10-13T06:59:29.711Z,5.00
2022-10-13T07:01:57.802Z,7.07
2022-10-13T07:04:27.920Z,9.43
2022-10-13T07:06:59.531Z,6.90
2022-10-13T07:09:27.730Z,4.63
2022-10-13T07:11:59.065Z,5.55
2022-10-13T07:14:28.013Z,7.22
2022-10-13T07:16:57.171Z,9.32
2022-10-13T07:19:26.111Z,5.75
2022-10-13T07:21:55.711Z,5.40
2022-10-13T07:24:26.427Z,7.18
2022-10-13T07:26:57.597Z,5.97
2022-10-13T07:29:26.382Z,4.90
2022-10-13T07:31:54.750Z,5.15
2022-10-13T07:34:23.316Z,3.97
2022-10-13T07:36:52.103Z,4.50
2022-10-13T07:39:20.352Z,5.22
2022-10-13T07:41:51.104Z,4.40
2022-10-13T07:44:20.975Z,4.85
2022-10-13T07:46:49.248Z,4.55
2022-10-13T07:49:17.830Z,4.47
2022-10-13T07:51:46.250Z,4.45
2022-10-13T07:54:14.797Z,6.97
2022-10-13T07:56:43.662Z,6.13
2022-10-13T07:59:11.895Z,5.43
2022-10-13T08:01:42.061Z,4.13
2022-10-13T08:04:10.352Z,4.82
2022-10-13T08:09:12.740Z,4.57
2022-10-13T08:11:41.736Z,3.58
2022-10-13T08:14:13.105Z,4.95
2022-10-13T08:16:48.574Z,3.70
2022-10-13T08:19:22.121Z,3.90
2022-10-13T08:21:59.536Z,6.43
2022-10-13T08:24:29.454Z,3.85
2022-10-13T08:26:57.831Z,4.65
2022-10-13T08:29:26.253Z,5.65
2022-10-13T08:31:56.081Z,5.68
2022-10-13T08:34:25.158Z,3.88
2022-10-13T08:36:56.306Z,5.13
2022-10-13T08:39:25.886Z,4.13
2022-10-13T08:41:57.773Z,3.67
2022-10-13T08:47:38.524Z,5.65
2022-10-13T08:50:15.887Z,5.13
2022-10-13T08:52:49.885Z,3.80
2022-10-13T08:55:26.600Z,3.92
2022-10-13T08:57:54.913Z,3.78
2022-10-13T09:00:27.793Z,3.47
2022-10-13T09:03:03.693Z,4.10
2022-10-13T09:05:42.814Z,3.75
2022-10-13T09:08:20.488Z,3.70
2022-10-13T09:10:50.869Z,5.07
2022-10-13T09:13:23.771Z,3.92
2022-10-13T09:15:53.017Z,3.58
2022-10-13T09:18:31.871Z,3.65
2022-10-13T09:21:22.757Z,3.58
2022-10-13T09:23:54.722Z,3.85
2022-10-13T09:26:26.113Z,4.63
2022-10-13T09:28:54.945Z,3.80
2022-10-13T09:31:28.195Z,3.90
2022-10-13T09:34:02.711Z,3.80
2022-10-13T09:36:32.013Z,4.80
2022-10-13T09:39:12.593Z,3.20
2022-10-13T09:41:43.282Z,3.45
2022-10-13T09:44:18.519Z,3.40
2022-10-13T09:46:54.681Z,3.58
2022-10-13T09:49:39.657Z,3.60
2022-10-13T09:52:17.526Z,3.20
2022-10-13T09:54:50.075Z,4.20
2022-10-13T09:57:32.353Z,4.18
2022-10-13T10:00:13.711Z,3.22
2022-10-13T10:02:49.987Z,3.40
2022-10-13T10:05:29.113Z,4.82
2022-10-13T10:08:05.677Z,3.60
2022-10-13T10:10:38.252Z,3.50
2022-10-13T10:13:13.087Z,3.58
2022-10-13T10:15:53.444Z,3.67
2022-10-13T10:18:33.558Z,4.43
2022-10-13T10:21:14.631Z,3.30
2022-10-13T10:23:49.835Z,3.95
2022-10-13T10:27:00.785Z,3.20
2022-10-13T10:29:41.140Z,3.40
2022-10-13T10:32:28.342Z,3.28
2022-10-13T10:35:03.053Z,3.58
2022-10-13T10:37:57.373Z,3.72
2022-10-13T10:40:40.058Z,3.90
2022-10-13T10:43:39.386Z,4.43
2022-10-13T10:46:18.130Z,3.28
2022-10-13T10:48:51.394Z,2.83
2022-10-13T10:51:21.264Z,3.28
2022-10-13T10:54:17.728Z,3.33
2022-10-13T10:56:54.374Z,3.28
2022-10-13T10:59:32.299Z,3.15
2022-10-13T11:02:24.598Z,3.35
2022-10-13T11:04:55.268Z,3.15
2022-10-13T11:08:15.712Z,3.67
2022-10-13T11:10:45.462Z,2.85
2022-10-13T11:14:49.592Z,3.20
2022-10-13T11:17:28.211Z,3.03
2022-10-13T11:19:58.684Z,3.25
2022-10-13T11:22:28.745Z,3.28
2022-10-13T11:25:05.833Z,3.05
2022-10-13T11:27:45.174Z,2.88
2022-10-13T11:30:50.207Z,2.80
2022-10-13T11:33:54.772Z,3.47
2022-10-13T11:36:56.809Z,3.60
2022-10-13T11:40:05.690Z,4.40
2022-10-13T11:43:08.441Z,5.60
2022-10-13T11:46:00.681Z,3.30
2022-10-13T11:49:11.663Z,3.17
2022-10-13T11:52:04.360Z,3.25
2022-10-13T11:54:36.574Z,3.78
2022-10-13T11:57:22.025Z,3.67
2022-10-13T11:59:56.451Z,3.22
2022-10-13T12:02:30.699Z,3.30
2022-10-13T12:05:20.293Z,2.83
2022-10-13T12:07:50.843Z,3.47
2022-10-13T12:10:25.461Z,2.78
2022-10-13T12:12:55.146Z,4.72
2022-10-13T12:15:36.508Z,3.40
2022-10-13T12:18:23.797Z,4.80
2022-10-13T12:20:57.673Z,3.80
2022-10-13T12:23:27.389Z,4.95
2022-10-13T12:26:00.331Z,4.80
2022-10-13T12:28:32.888Z,3.08
2022-10-13T12:31:03.012Z,3.83
2022-10-13T12:33:35.283Z,3.95
2022-10-13T12:36:18.634Z,3.88
2022-10-13T12:38:51.602Z,5.18
2022-10-13T12:41:27.736Z,5.32
2022-10-13T12:44:01.046Z,3.63
2022-10-13T12:46:43.834Z,2.90
2022-10-13T12:49:18.000Z,3.15
2022-10-13T12:51:50.488Z,5.40
2022-10-13T12:54:28.071Z,4.03
2022-10-13T12:56:59.788Z,3.30
2022-10-13T12:59:31.565Z,5.57
2022-10-13T13:02:04.820Z,4.07
2022-10-13T13:04:44.997Z,3.58
2022-10-13T13:07:31.968Z,4.25
2022-10-13T13:10:27.050Z,3.97
2022-10-13T13:12:57.057Z,4.47
2022-10-13T13:15:54.742Z,4.28
2022-10-13T13:18:39.704Z,4.43
2022-10-13T13:21:08.686Z,3.50
2022-10-13T13:23:37.034Z,3.53
2022-10-13T13:26:14.122Z,3.97
2022-10-13T13:28:47.205Z,4.72
2022-10-13T13:31:17.131Z,4.88
2022-10-13T13:33:48.337Z,3.97
2022-10-13T13:36:20.232Z,4.00
2022-10-13T13:38:49.264Z,4.05
2022-10-13T13:41:18.472Z,3.95
2022-10-13T13:43:47.837Z,6.88
2022-10-13T13:46:21.457Z,4.90
2022-10-13T13:48:52.304Z,2.90
2022-10-13T13:51:21.331Z,3.15
2022-10-13T13:53:50.519Z,2.85
2022-10-13T13:56:21.485Z,2.83
2022-10-13T13:58:50.416Z,3.58
2022-10-13T14:01:19.143Z,3.05
2022-10-13T14:03:47.623Z,4.90
2022-10-13T14:06:23.097Z,2.90
2022-10-13T14:08:51.832Z,5.65
2022-10-13T14:11:21.050Z,4.35
2022-10-13T14:13:49.848Z,7.22
2022-10-13T14:16:25.654Z,5.45
2022-10-13T14:18:55.630Z,6.18
2022-10-13T14:21:28.361Z,5.70
2022-10-13T14:23:58.570Z,3.85
2022-10-13T14:26:27.757Z,3.38
2022-10-13T14:28:57.556Z,5.60
2022-10-13T14:31:27.233Z,4.78
2022-10-13T14:33:56.442Z,2.53
2022-10-13T14:36:33.982Z,8.65
2022-10-13T14:39:03.423Z,4.47
2022-10-13T14:41:32.503Z,5.82
2022-10-13T14:44:00.591Z,5.65
2022-10-13T14:46:28.791Z,5.88
2022-10-13T14:48:58.795Z,5.50
2022-10-13T14:51:27.359Z,5.13
2022-10-13T14:54:04.875Z,5.30
2022-10-13T14:56:33.407Z,4.03
2022-10-13T14:59:05.129Z,3.85
2022-10-13T15:01:44.624Z,3.72
2022-10-13T15:04:13.083Z,3.45
2022-10-13T15:06:41.746Z,4.18
2022-10-13T15:09:12.460Z,3.00
2022-10-13T15:11:40.672Z,3.90
2022-10-13T15:14:09.851Z,3.67
2022-10-13T15:16:38.722Z,4.28
2022-10-13T15:19:07.041Z,4.47
2022-10-13T15:21:35.596Z,3.67
2022-10-13T15:24:05.133Z,3.63
2022-10-13T15:26:34.975Z,2.85
2022-10-13T15:29:03.255Z,6.38
2022-10-13T15:31:32.161Z,2.88
2022-10-13T15:34:02.087Z,2.95
2022-10-13T15:36:31.114Z,3.90
2022-10-13T15:38:59.244Z,2.92
2022-10-13T15:41:27.655Z,2.83
2022-10-13T15:43:57.299Z,2.88
2022-10-13T15:46:26.229Z,3.33
2022-10-13T15:49:11.695Z,3.70
2022-10-13T15:51:39.885Z,4.60
2022-10-13T15:54:08.058Z,3.40
2022-10-13T15:56:36.520Z,5.32
2022-10-13T15:59:06.580Z,2.97
2022-10-13T16:01:34.936Z,3.55
2022-10-13T16:04:03.262Z,3.08
2022-10-13T16:06:33.649Z,3.38
2022-10-13T16:09:02.780Z,5.60
2022-10-13T16:11:31.364Z,5.28
2022-10-13T16:13:59.572Z,3.45
2022-10-13T16:16:29.741Z,3.40
2022-10-13T16:18:58.041Z,4.43
2022-10-13T16:21:27.452Z,3.47
2022-10-13T16:23:55.652Z,3.30
2022-10-13T16:26:24.442Z,4.72
2022-10-13T16:28:56.764Z,5.15
2022-10-13T16:31:25.724Z,5.57
2022-10-13T16:33:56.212Z,3.72
2022-10-13T16:36:25.465Z,3.33
2022-10-13T16:38:55.828Z,3.53
2022-10-13T16:41:24.778Z,3.42
2022-10-13T16:43:53.512Z,3.15
2022-10-13T16:46:23.811Z,3.90
2022-10-13T16:48:52.466Z,3.38
2022-10-13T16:51:25.164Z,5.22
2022-10-13T16:53:58.631Z,3.75
2022-10-13T16:56:30.075Z,3.70
2022-10-13T16:59:00.715Z,3.47
2022-10-13T17:01:31.112Z,2.90
2022-10-13T17:04:00.001Z,2.75
2022-10-13T17:06:30.684Z,3.08
2022-10-13T17:09:00.711Z,5.35
2022-10-13T17:11:31.745Z,3.13
2022-10-13T17:14:02.346Z,3.42
2022-10-13T17:16:34.141Z,3.83
2022-10-13T17:19:03.378Z,2.88
2022-10-13T17:21:38.661Z,3.10
2022-10-13T17:24:10.923Z,3.92
2022-10-13T17:26:39.402Z,3.85
2022-10-13T17:29:07.996Z,3.92
2022-10-13T17:31:36.394Z,3.10
2022-10-13T17:34:06.255Z,4.18
2022-10-13T17:36:34.814Z,4.43
2022-10-13T17:39:12.189Z,4.50
2022-10-13T17:41:42.034Z,2.67
2022-10-13T17:44:11.181Z,2.83
2022-10-13T17:46:39.812Z,5.07
2022-10-13T17:49:10.681Z,3.17
2022-10-13T17:51:39.375Z,5.13
2022-10-13T17:54:13.057Z,3.40
2022-10-13T17:56:45.125Z,3.53
2022-10-13T17:59:13.965Z,5.50
2022-10-13T18:01:42.992Z,3.20
2022-10-13T18:04:15.224Z,4.95
2022-10-13T18:06:44.958Z,7.50
2022-10-13T18:09:18.199Z,2.83
2022-10-13T18:11:51.297Z,3.03
2022-10-13T18:14:21.200Z,2.90
2022-10-13T18:16:50.816Z,4.40
2022-10-13T18:19:19.476Z,3.03
2022-10-13T18:21:47.768Z,3.45
2022-10-13T18:24:16.486Z,5.22
2022-10-13T18:26:45.442Z,5.20
2022-10-13T18:29:15.456Z,5.43
2022-10-13T18:31:44.356Z,4.50
2022-10-13T18:34:15.934Z,5.30
2022-10-13T18:36:47.212Z,7.03
2022-10-13T18:39:18.150Z,3.55
2022-10-13T18:41:50.465Z,6.18
2022-10-13T18:44:22.211Z,5.90
2022-10-13T18:46:51.609Z,6.40
2022-10-13T18:49:23.184Z,4.30
2022-10-13T18:51:52.528Z,5.47
2022-10-13T18:54:20.725Z,6.22
2022-10-13T18:56:48.922Z,7.35
2022-10-13T18:59:17.657Z,4.88
2022-10-13T19:01:48.370Z,10.30
2022-10-13T19:04:16.998Z,9.70
2022-10-13T19:06:46.428Z,3.83
2022-10-13T19:09:17.413Z,6.18
2022-10-13T19:11:45.759Z,5.22
2022-10-13T19:14:17.571Z,8.93
2022-10-13T19:16:47.176Z,6.75
2022-10-13T19:19:15.892Z,5.53
2022-10-13T19:21:44.022Z,6.80
2022-10-13T19:24:12.183Z,9.55
2022-10-13T19:26:40.510Z,5.95
2022-10-13T19:29:11.480Z,9.10
2022-10-13T19:31:42.700Z,10.68
2022-10-13T19:34:14.109Z,7.88
2022-10-13T19:36:45.358Z,5.85
2022-10-13T19:39:17.357Z,7.70
2022-10-13T19:41:53.335Z,6.47
2022-10-13T19:44:24.522Z,8.68
2022-10-13T19:46:54.316Z,10.68
2022-10-13T19:49:26.406Z,7.63
2022-10-13T19:51:55.604Z,6.28
2022-10-13T19:54:30.139Z,9.20
2022-10-13T19:57:01.207Z,7.35
2022-10-13T19:59:29.454Z,6.88
2022-10-13T20:01:57.668Z,6.22
2022-10-13T20:04:27.262Z,9.27
2022-10-13T20:09:52.845Z,6.95
2022-10-13T20:12:21.314Z,11.32
2022-10-13T20:14:49.460Z,6.28
2022-10-13T20:17:17.591Z,5.05
2022-10-13T20:19:47.879Z,6.22
2022-10-13T20:22:15.988Z,5.60
2022-10-13T20:24:49.867Z,7.50
2022-10-13T20:27:18.313Z,6.13
2022-10-13T20:29:46.898Z,7.78
2022-10-13T20:32:15.617Z,6.72
2022-10-13T20:34:44.594Z,11.27
2022-10-13T20:37:14.154Z,6.53
2022-10-13T20:39:42.380Z,7.55
2022-10-13T20:42:11.478Z,6.07
2022-10-13T20:44:40.650Z,6.13
2022-10-13T20:47:09.222Z,6.95
2022-10-13T20:49:37.348Z,7.15
2022-10-13T20:52:05.800Z,5.10
2022-10-13T20:54:36.537Z,8.63
2022-10-13T20:57:05.017Z,5.13
2022-10-13T20:59:33.258Z,5.93
2022-10-13T21:02:02.001Z,9.77
2022-10-13T21:04:30.748Z,8.35
2022-10-13T21:06:58.895Z,7.35
2022-10-13T21:09:27.116Z,5.65
2022-10-13T21:11:56.698Z,4.70
2022-10-13T21:14:25.712Z,5.88
2022-10-13T21:16:54.047Z,8.57
2022-10-13T21:19:22.207Z,4.13
2022-10-13T21:21:50.942Z,5.57
2022-10-13T21:24:19.121Z,7.50
2022-10-13T21:26:47.447Z,6.95
2022-10-13T21:29:17.198Z,6.20
2022-10-13T21:31:45.371Z,6.75
2022-10-13T21:34:13.729Z,7.32
2022-10-13T21:36:44.464Z,5.15
2022-10-13T21:39:14.957Z,5.90
2022-10-13T21:41:43.433Z,5.88
2022-10-13T21:44:16.106Z,7.97
2022-10-13T21:46:44.374Z,4.88
2022-10-13T21:49:12.709Z,5.03
2022-10-13T21:51:42.308Z,5.78
2022-10-13T21:54:15.096Z,3.75
2022-10-13T21:56:44.082Z,6.53
2022-10-13T21:59:13.601Z,3.97
2022-10-13T22:01:44.644Z,7.43
2022-10-13T22:04:18.412Z,6.05
2022-10-13T22:06:47.114Z,6.45
2022-10-13T22:09:15.853Z,5.35
2022-10-13T22:11:45.517Z,5.07
2022-10-13T22:14:14.488Z,4.65
2022-10-13T22:45:15.688Z,6.32
2022-10-13T22:47:43.837Z,5.82
2022-10-13T22:50:12.234Z,5.88
2022-10-13T22:52:40.418Z,6.35
2022-10-13T22:55:10.325Z,7.63
2022-10-13T22:57:38.910Z,8.57
2022-10-13T23:47:12.188Z,7.82
2022-10-13T23:49:40.620Z,5.20
2022-10-13T23:52:11.053Z,5.55
2022-10-13T23:54:39.499Z,5.78
2022-10-13T23:57:07.622Z,5.75
2022-10-13T23:59:35.734Z,5.50
